Time;durP1;ratioP1;P1;durP2;ratioP2;P2;SDS_P1;SDS_P2;PMS_P1;PMS_P2;Temp;Humidity;BMP_temperature;BMP_pressure;BME280_temperature;BME280_humidity;BME280_pressure;Samples;Min_cycle;Max_cycle;Signal;HPM_P1;HPM_P2
2023/06/12 00:01:12;;;;;;;;;21.00;21.00;;;;;18.42;65.19;98837.13;5014929;28;8961;-82
2023/06/12 00:04:02;;;;;;;;;19.60;19.20;;;;;18.29;65.24;98834.41;5028595;28;8844;-79
2023/06/12 00:06:31;;;;;;;;;19.60;19.00;;;;;18.39;64.91;98829.34;5051762;28;8869;-82
2023/06/12 00:09:02;;;;;;;;;18.40;18.40;;;;;18.43;64.96;98833.53;5065760;28;9580;-82
2023/06/12 00:11:31;;;;;;;;;21.40;20.80;;;;;18.46;64.68;98831.53;5050058;28;8858;-81
2023/06/12 00:14:01;;;;;;;;;23.20;21.20;;;;;18.41;64.65;98825.63;5070247;28;8900;-84
2023/06/12 00:16:30;;;;;;;;;17.00;16.40;;;;;18.60;63.94;98822.63;5026300;28;8956;-80
2023/06/12 00:19:00;;;;;;;;;19.00;18.60;;;;;18.26;64.92;98830.13;5022825;28;8890;-83
2023/06/12 00:21:28;;;;;;;;;17.00;17.00;;;;;18.38;64.76;98824.97;4994159;28;8944;-83
2023/06/12 00:23:57;;;;;;;;;17.60;15.80;;;;;18.60;63.90;98827.94;4998633;28;9629;-82
2023/06/12 00:26:27;;;;;;;;;16.40;16.40;;;;;18.15;65.52;98824.66;5032871;28;9024;-82
2023/06/12 00:28:56;;;;;;;;;23.00;19.40;;;;;17.61;67.71;98821.81;5015407;28;8893;-83
2023/06/12 00:31:25;;;;;;;;;14.60;13.60;;;;;17.63;67.81;98827.88;5006583;28;8855;-83
2023/06/12 00:33:54;;;;;;;;;18.00;17.00;;;;;17.34;68.66;98834.06;5053164;28;8843;-84
2023/06/12 00:36:23;;;;;;;;;19.80;19.80;;;;;17.73;67.46;98824.56;5057391;28;8856;-81
2023/06/12 00:38:53;;;;;;;;;19.20;17.60;;;;;17.60;67.94;98826.28;5068915;28;8886;-83
2023/06/12 00:41:23;;;;;;;;;19.60;18.80;;;;;17.23;69.41;98824.97;5039155;28;9005;-82
2023/06/12 00:43:53;;;;;;;;;22.60;21.60;;;;;17.12;70.29;98823.81;5051980;28;8879;-82
2023/06/12 00:46:22;;;;;;;;;18.40;17.80;;;;;17.65;67.97;98831.34;5044305;28;8850;-81
2023/06/12 00:48:52;;;;;;;;;18.00;16.80;;;;;17.32;68.79;98827.09;5068316;28;8893;-81
2023/06/12 00:51:20;;;;;;;;;17.00;15.80;;;;;17.29;69.07;98827.31;5085677;28;8897;-81
2023/06/12 00:53:52;;;;;;;;;16.60;16.60;;;;;17.47;68.51;98823.50;5068797;28;8851;-82
2023/06/12 00:56:21;;;;;;;;;15.20;15.20;;;;;17.68;67.35;98825.81;5070794;28;8883;-83
2023/06/12 00:58:52;;;;;;;;;18.20;18.20;;;;;17.61;67.93;98830.66;5085456;28;8862;-85
2023/06/12 01:01:25;;;;;;;;;18.60;17.20;;;;;17.18;69.85;98831.41;5099877;27;8867;-83
2023/06/12 01:03:57;;;;;;;;;19.80;19.60;;;;;17.24;69.66;98835.50;5090517;28;8872;-87
2023/06/12 01:06:37;;;;;;;;;21.20;19.40;;;;;17.11;70.58;98839.84;5105704;28;9712;-83
2023/06/12 01:09:18;;;;;;;;;17.60;17.60;;;;;16.69;72.37;98844.06;5064476;28;8962;-82
2023/06/12 01:11:49;;;;;;;;;18.80;18.80;;;;;16.59;73.03;98833.13;5047599;28;8974;-80
2023/06/12 01:14:21;;;;;;;;;18.20;17.20;;;;;16.29;73.99;98843.66;5078473;28;8824;-86
2023/06/12 01:16:52;;;;;;;;;19.80;18.20;;;;;16.16;74.82;98833.72;5082169;28;8836;-80
2023/06/12 01:19:21;;;;;;;;;17.20;16.80;;;;;15.96;75.81;98840.13;5066709;28;8852;-82
2023/06/12 01:21:57;;;;;;;;;17.40;17.00;;;;;15.86;76.79;98833.59;5080977;28;8951;-85
2023/06/12 01:24:48;;;;;;;;;16.60;16.60;;;;;15.54;78.30;98832.63;5047651;28;8975;-81
2023/06/12 01:27:33;;;;;;;;;20.60;19.40;;;;;15.42;79.08;98831.50;5010216;28;8874;-80
2023/06/12 01:30:24;;;;;;;;;16.60;14.80;;;;;15.50;78.83;98831.09;4996303;28;8901;-81
2023/06/12 01:32:59;;;;;;;;;17.80;17.80;;;;;15.40;79.04;98836.03;4995918;28;9028;-80
2023/06/12 01:35:32;;;;;;;;;13.00;13.00;;;;;15.39;78.94;98832.50;4994076;28;8884;-84
2023/06/12 01:38:07;;;;;;;;;16.20;15.80;;;;;15.25;79.52;98821.78;5010305;28;8983;-83
2023/06/12 01:40:39;;;;;;;;;15.00;13.00;;;;;15.38;79.06;98819.38;5013747;28;8826;-83
2023/06/12 01:43:08;;;;;;;;;17.60;16.80;;;;;15.19;80.05;98822.97;5045339;28;9004;-83
2023/06/12 01:45:41;;;;;;;;;15.80;14.60;;;;;15.31;79.68;98820.63;5042012;28;8872;-82
2023/06/12 01:48:14;;;;;;;;;15.40;15.20;;;;;15.37;79.52;98825.59;5051243;28;8836;-81
2023/06/12 01:50:44;;;;;;;;;15.60;15.60;;;;;15.50;78.78;98823.16;5050989;28;8974;-82
2023/06/12 01:53:15;;;;;;;;;14.40;13.60;;;;;15.48;78.58;98827.69;5050884;28;8867;-83
2023/06/12 01:55:45;;;;;;;;;14.60;14.60;;;;;15.80;76.27;98816.22;5033548;28;8844;-82
2023/06/12 01:58:17;;;;;;;;;11.00;10.20;;;;;16.18;74.41;98815.06;5075884;28;8979;-84
2023/06/12 02:01:05;;;;;;;;;14.40;14.40;;;;;16.22;73.30;98811.28;5087534;28;8859;-86
2023/06/12 02:03:39;;;;;;;;;10.80;10.80;;;;;15.90;74.63;98803.34;5102082;28;8887;-80
2023/06/12 02:06:08;;;;;;;;;11.20;10.00;;;;;16.03;74.02;98808.81;5086772;28;8866;-82
2023/06/12 02:08:37;;;;;;;;;13.40;10.40;;;;;15.89;74.21;98811.34;5070492;28;8865;-86
2023/06/12 02:11:06;;;;;;;;;11.00;11.00;;;;;15.64;75.17;98816.22;5071093;28;8831;-81
2023/06/12 02:13:35;;;;;;;;;7.60;7.20;;;;;15.53;75.77;98815.91;5104704;28;8855;-82
2023/06/12 02:16:07;;;;;;;;;10.00;9.60;;;;;15.27;76.57;98811.97;5066622;28;8861;-82
2023/06/12 02:18:36;;;;;;;;;7.80;7.00;;;;;15.56;75.18;98810.41;5050947;28;8850;-82
2023/06/12 02:21:07;;;;;;;;;9.40;9.40;;;;;15.49;75.06;98817.00;5049494;28;8851;-83
2023/06/12 02:23:35;;;;;;;;;10.60;9.80;;;;;15.72;74.33;98822.88;5069333;28;9001;-82
2023/06/12 02:26:05;;;;;;;;;10.00;9.60;;;;;15.92;73.26;98817.34;5087385;28;8860;-81
2023/06/12 02:28:34;;;;;;;;;10.80;10.80;;;;;16.00;72.79;98816.94;5067195;28;8848;-82
2023/06/12 02:31:04;;;;;;;;;6.00;6.00;;;;;16.23;71.64;98816.53;5048632;28;9561;-84
2023/06/12 02:33:37;;;;;;;;;9.40;7.60;;;;;16.47;69.92;98828.50;5050079;28;8886;-83
2023/06/12 02:36:07;;;;;;;;;6.40;6.40;;;;;16.56;69.57;98820.03;5050220;28;9617;-84
2023/06/12 02:38:37;;;;;;;;;6.40;6.40;;;;;16.85;68.37;98812.16;5049353;28;8887;-82
2023/06/12 02:41:11;;;;;;;;;4.80;4.80;;;;;16.83;68.01;98820.22;5066839;28;8863;-83
2023/06/12 02:43:41;;;;;;;;;5.40;5.40;;;;;17.18;66.71;98828.75;5051214;28;8886;-77
2023/06/12 02:46:10;;;;;;;;;4.40;4.40;;;;;17.53;65.18;98832.91;5064112;28;8871;-80
2023/06/12 02:48:38;;;;;;;;;4.40;4.40;;;;;17.75;63.87;98837.78;5081545;28;8856;-81
2023/06/12 02:51:09;;;;;;;;;5.20;5.20;;;;;18.05;63.06;98836.84;5048061;28;9535;-81
2023/06/12 02:53:37;;;;;;;;;4.60;4.00;;;;;17.38;64.52;98838.22;5120214;28;8959;-79
2023/06/12 02:56:06;;;;;;;;;4.40;4.40;;;;;16.95;66.23;98845.22;5086800;28;8840;-81
2023/06/12 02:58:35;;;;;;;;;5.40;5.40;;;;;16.86;66.19;98845.75;5121509;28;8866;-81
2023/06/12 03:01:04;;;;;;;;;3.20;3.20;;;;;17.33;64.52;98852.75;5105239;28;8872;-80
2023/06/12 03:03:35;;;;;;;;;4.40;4.40;;;;;17.71;63.35;98854.88;5065755;28;8838;-80
2023/06/12 03:06:06;;;;;;;;;3.80;3.60;;;;;17.95;62.37;98863.13;5070588;28;9623;-80
2023/06/12 03:08:36;;;;;;;;;4.80;4.80;;;;;18.24;61.58;98871.09;5083042;28;9608;-80
2023/06/12 03:11:05;;;;;;;;;3.60;3.60;;;;;18.41;60.68;98878.84;5067099;28;8847;-80
2023/06/12 03:13:34;;;;;;;;;4.40;4.40;;;;;18.59;60.13;98882.16;5066955;28;8858;-79
2023/06/12 03:16:04;;;;;;;;;4.00;4.00;;;;;18.74;59.59;98875.81;5040037;28;8932;-81
2023/06/12 03:18:33;;;;;;;;;4.40;3.60;;;;;18.87;58.77;98862.56;5068944;28;8875;-80
2023/06/12 03:21:02;;;;;;;;;3.00;3.00;;;;;19.01;58.34;98877.63;5085854;28;8939;-79
2023/06/12 03:23:31;;;;;;;;;4.60;4.60;;;;;19.13;58.03;98876.81;5102566;28;8852;-79
2023/06/12 03:26:01;;;;;;;;;3.60;3.40;;;;;19.19;57.22;98877.34;5085339;28;8863;-79
2023/06/12 03:28:34;;;;;;;;;4.40;4.40;;;;;19.26;57.33;98871.50;5102846;28;9096;-81
2023/06/12 03:31:03;;;;;;;;;3.60;3.60;;;;;19.38;56.80;98880.47;5067856;28;8871;-79
2023/06/12 03:33:35;;;;;;;;;3.00;3.00;;;;;19.43;56.33;98874.84;5085556;28;8848;-80
2023/06/12 03:36:08;;;;;;;;;3.00;3.00;;;;;19.45;56.31;98876.44;5069377;28;8878;-81
2023/06/12 03:38:37;;;;;;;;;5.40;5.00;;;;;19.44;55.36;98876.53;5085539;28;8852;-80
2023/06/12 03:41:07;;;;;;;;;3.00;3.00;;;;;19.36;56.03;98878.88;5087758;28;8939;-80
2023/06/12 03:43:37;;;;;;;;;14.20;13.80;;;;;19.29;55.85;98876.63;5125748;27;8843;-82
2023/06/12 03:46:07;;;;;;;;;87.25;82.25;;;;;19.38;55.75;98876.97;5085015;28;8881;-79
2023/06/12 03:48:35;;;;;;;;;12.80;12.80;;;;;19.43;55.36;98870.34;5102762;28;9517;-80
2023/06/12 03:51:06;;;;;;;;;11.00;10.80;;;;;19.48;55.43;98878.91;5085833;28;8858;-79
2023/06/12 03:53:35;;;;;;;;;6.00;6.00;;;;;18.89;56.63;98883.78;5051696;28;8866;-80
2023/06/12 03:56:04;;;;;;;;;3.20;3.00;;;;;18.16;59.34;98876.91;5070378;28;8846;-80
2023/06/12 03:58:34;;;;;;;;;5.40;4.20;;;;;17.26;62.52;98881.47;5098251;28;8896;-80
2023/06/12 04:01:03;;;;;;;;;5.60;5.00;;;;;16.77;64.63;98884.28;5036871;28;8828;-80
2023/06/12 04:03:34;;;;;;;;;6.80;6.80;;;;;16.01;67.16;98884.94;5088951;28;8859;-79
2023/06/12 04:06:03;;;;;;;;;5.60;5.60;;;;;15.63;68.97;98886.03;5088865;28;8859;-80
2023/06/12 04:08:33;;;;;;;;;6.40;6.40;;;;;15.25;70.69;98882.69;5088805;28;8863;-80
2023/06/12 04:11:03;;;;;;;;;8.40;7.80;;;;;15.02;71.93;98881.22;5092361;28;8897;-80
2023/06/12 04:13:32;;;;;;;;;6.00;6.00;;;;;15.28;71.07;98884.31;5119802;28;8848;-79
2023/06/12 04:16:02;;;;;;;;;7.40;6.40;;;;;15.62;69.84;98886.97;5070593;28;8876;-81
2023/06/12 04:18:32;;;;;;;;;7.00;6.00;;;;;15.84;68.97;98878.72;5021722;28;8865;-81
2023/06/12 04:21:02;;;;;;;;;9.00;7.60;;;;;15.33;70.40;98885.78;5070535;28;8838;-80
2023/06/12 04:23:31;;;;;;;;;10.80;9.40;;;;;15.22;71.32;98885.47;5070744;28;8857;-80
2023/06/12 04:26:05;;;;;;;;;8.60;8.00;;;;;15.04;71.93;98888.13;5087310;28;9663;-81
2023/06/12 04:28:35;;;;;;;;;7.40;6.80;;;;;14.88;72.84;98883.66;5070643;28;9658;-79
2023/06/12 04:31:05;;;;;;;;;8.60;8.60;;;;;14.86;73.59;98881.09;5061655;28;8823;-80
2023/06/12 04:33:35;;;;;;;;;13.20;13.20;;;;;14.70;73.77;98882.72;5090489;28;9661;-81
2023/06/12 04:36:07;;;;;;;;;8.00;7.20;;;;;14.70;74.47;98878.31;5073796;28;8884;-81
2023/06/12 04:38:36;;;;;;;;;8.80;8.20;;;;;15.03;73.31;98877.59;5107568;28;8839;-81
2023/06/12 04:41:06;;;;;;;;;9.60;8.40;;;;;15.34;71.70;98871.63;5090642;28;8828;-79
2023/06/12 04:43:36;;;;;;;;;5.40;5.40;;;;;15.61;71.01;98877.31;5106987;28;8956;-80
2023/06/12 04:46:07;;;;;;;;;9.40;9.40;;;;;15.40;72.29;98878.41;5083009;28;8877;-79
2023/06/12 04:48:36;;;;;;;;;9.40;9.00;;;;;14.80;74.73;98878.75;5068408;28;8895;-80
2023/06/12 04:51:05;;;;;;;;;8.20;8.20;;;;;14.72;75.97;98879.13;5074856;28;8846;-80
2023/06/12 04:53:34;;;;;;;;;9.20;9.20;;;;;14.63;77.73;98882.19;5043020;28;8970;-79
2023/06/12 04:56:05;;;;;;;;;7.80;7.60;;;;;14.64;77.77;98876.84;5072118;28;8843;-79
2023/06/12 04:58:34;;;;;;;;;9.40;8.80;;;;;15.03;76.26;98886.41;5084226;28;8854;-80
2023/06/12 05:01:03;;;;;;;;;10.40;10.40;;;;;14.63;78.30;98888.31;5090715;27;8852;-80
2023/06/12 05:03:33;;;;;;;;;11.60;11.20;;;;;14.90;77.20;98890.59;5086382;28;8855;-81
2023/06/12 05:06:03;;;;;;;;;9.20;9.00;;;;;14.62;77.62;98906.91;5086302;28;8881;-80
2023/06/12 05:08:32;;;;;;;;;9.80;9.00;;;;;14.56;77.73;98899.28;5069290;28;9641;-81
2023/06/12 05:11:03;;;;;;;;;8.60;7.40;;;;;14.33;78.67;98903.00;5068837;28;8853;-81
2023/06/12 05:13:31;;;;;;;;;8.40;8.40;;;;;14.11;80.47;98906.66;5103101;28;8861;-80
2023/06/12 05:16:00;;;;;;;;;9.00;7.20;;;;;14.01;80.56;98902.72;5090358;28;8828;-81
2023/06/12 05:18:30;;;;;;;;;9.00;8.40;;;;;13.80;81.56;98900.09;5038541;28;8836;-80
2023/06/12 05:21:01;;;;;;;;;9.80;9.80;;;;;13.86;81.55;98889.25;5085755;28;9622;-80
2023/06/12 05:23:29;;;;;;;;;8.00;8.00;;;;;14.08;80.50;98893.56;5055943;28;8841;-80
2023/06/12 05:25:58;;;;;;;;;6.20;6.20;;;;;14.06;80.71;98880.44;5069502;28;8846;-81
2023/06/12 05:28:28;;;;;;;;;8.20;7.60;;;;;14.12;80.43;98884.56;5053557;28;8876;-80
2023/06/12 05:30:57;;;;;;;;;10.20;9.00;;;;;14.26;80.04;98881.28;5057963;28;8833;-81
2023/06/12 05:33:26;;;;;;;;;8.00;7.00;;;;;14.52;78.73;98893.28;5083406;28;8832;-79
2023/06/12 05:35:55;;;;;;;;;9.80;9.80;;;;;15.13;76.96;98892.13;5068106;28;8861;-80
2023/06/12 05:38:26;;;;;;;;;10.00;10.00;;;;;15.56;76.02;98894.34;5027944;28;8878;-81
2023/06/12 05:40:55;;;;;;;;;13.60;12.60;;;;;15.34;75.15;98891.94;5020880;28;8832;-80
2023/06/12 05:43:24;;;;;;;;;13.60;13.20;;;;;15.46;74.14;98904.56;5044758;28;8882;-82
2023/06/12 05:45:54;;;;;;;;;12.40;11.00;;;;;15.63;73.21;98901.91;5065251;28;8846;-80
2023/06/12 05:48:22;;;;;;;;;10.20;9.60;;;;;15.89;72.42;98901.47;5037225;28;8861;-81
2023/06/12 05:50:52;;;;;;;;;9.40;6.60;;;;;16.16;71.82;98894.69;5072990;28;8864;-83
2023/06/12 05:53:21;;;;;;;;;9.40;9.40;;;;;16.41;70.97;98902.16;5051819;28;8869;-81
2023/06/12 05:55:52;;;;;;;;;9.00;8.00;;;;;16.71;70.51;98901.41;5068411;28;8865;-79
2023/06/12 05:58:22;;;;;;;;;10.40;10.20;;;;;16.91;69.08;98905.59;5059182;28;8880;-81
2023/06/12 06:00:52;;;;;;;;;9.80;9.80;;;;;17.10;68.13;98907.19;5087590;28;8825;-79
2023/06/12 06:03:42;;;;;;;;;8.00;8.00;;;;;17.20;67.53;98908.34;5070119;28;8934;-80
2023/06/12 06:06:13;;;;;;;;;10.40;9.40;;;;;17.32;65.99;98912.13;5062119;28;8857;-76
2023/06/12 06:08:43;;;;;;;;;10.80;10.40;;;;;17.50;66.18;98907.53;5069159;28;8862;-80
2023/06/12 06:11:13;;;;;;;;;9.80;9.40;;;;;17.63;66.01;98911.16;5102610;28;8893;-81
2023/06/12 06:13:43;;;;;;;;;14.80;13.60;;;;;17.16;65.35;98920.09;5102734;28;9636;-78
2023/06/12 06:16:14;;;;;;;;;11.20;10.20;;;;;17.30;65.07;98917.50;5063411;28;9055;-78
2023/06/12 06:18:42;;;;;;;;;9.80;9.80;;;;;17.37;64.53;98921.53;5076961;28;8844;-79
2023/06/12 06:21:12;;;;;;;;;11.80;11.80;;;;;16.75;65.80;98926.81;5072530;28;8876;-80
2023/06/12 06:23:41;;;;;;;;;12.40;12.40;;;;;16.31;68.09;98929.28;5079653;28;8878;-80
2023/06/12 06:26:10;;;;;;;;;12.20;11.20;;;;;16.61;67.10;98927.63;5087298;28;8999;-82
2023/06/12 06:28:41;;;;;;;;;15.40;14.20;;;;;16.55;66.95;98921.78;5069937;28;9697;-81
2023/06/12 06:31:11;;;;;;;;;10.20;10.20;;;;;16.90;66.55;98922.44;5101795;28;8882;-79
2023/06/12 06:33:40;;;;;;;;;11.00;10.40;;;;;17.03;65.52;98922.59;5072904;28;9067;-80
2023/06/12 06:36:09;;;;;;;;;11.00;11.00;;;;;17.12;64.73;98926.53;5082159;28;9947;-79
2023/06/12 06:38:37;;;;;;;;;12.40;12.40;;;;;17.31;64.52;98929.00;5031278;28;9108;-79
2023/06/12 06:41:07;;;;;;;;;10.80;10.40;;;;;17.48;63.75;98922.69;5080061;28;8964;-80
2023/06/12 06:43:36;;;;;;;;;9.00;9.00;;;;;17.25;63.28;98930.22;5082163;28;8951;-78
2023/06/12 06:46:10;;;;;;;;;11.20;10.40;;;;;17.36;62.79;98929.56;5061237;28;8851;-78
2023/06/12 06:48:39;;;;;;;;;7.20;7.20;;;;;17.38;62.26;98925.03;5113709;28;8858;-79
2023/06/12 06:51:09;;;;;;;;;12.80;11.80;;;;;17.48;62.30;98928.00;5099428;28;8863;-80
2023/06/12 06:53:38;;;;;;;;;14.80;14.80;;;;;16.69;63.92;98932.50;5085804;28;8847;-79
2023/06/12 06:56:08;;;;;;;;;17.00;17.00;;;;;15.56;67.51;98942.03;5082811;28;8846;-80
2023/06/12 06:58:36;;;;;;;;;13.80;13.80;;;;;14.68;71.33;98943.69;5084389;28;9961;-81
2023/06/12 07:01:05;;;;;;;;;16.00;16.00;;;;;14.70;72.72;98940.94;5119322;28;9585;-79
2023/06/12 07:03:36;;;;;;;;;14.00;13.80;;;;;14.65;73.03;98947.31;5083969;28;8910;-79
2023/06/12 07:06:06;;;;;;;;;15.60;15.60;;;;;14.50;73.54;98944.53;5066815;28;8850;-78
2023/06/12 07:08:35;;;;;;;;;15.60;14.40;;;;;14.18;73.92;98946.88;5099287;28;8861;-80
2023/06/12 07:11:05;;;;;;;;;15.20;15.20;;;;;13.88;75.55;98945.56;5100359;28;8907;-81
2023/06/12 07:13:33;;;;;;;;;18.00;17.40;;;;;13.91;75.36;98952.47;5040299;28;8933;-78
2023/06/12 07:16:02;;;;;;;;;16.60;16.60;;;;;13.71;76.96;98945.38;5102453;28;8889;-78
2023/06/12 07:18:32;;;;;;;;;16.20;14.40;;;;;13.67;77.39;98944.66;5063393;28;8957;-78
2023/06/12 07:21:03;;;;;;;;;12.00;12.00;;;;;13.65;76.89;98943.84;5061893;28;8863;-78
2023/06/12 07:23:32;;;;;;;;;14.40;14.40;;;;;13.83;77.10;98947.53;5067050;28;8857;-78
2023/06/12 07:26:03;;;;;;;;;14.00;13.40;;;;;13.93;76.05;98952.41;5103557;28;8861;-79
2023/06/12 07:28:51;;;;;;;;;16.80;14.40;;;;;13.85;75.27;98948.31;5098560;28;10101;-77
2023/06/12 07:31:21;;;;;;;;;20.00;18.60;;;;;14.14;75.14;98953.22;5062235;28;8866;-80
2023/06/12 07:33:49;;;;;;;;;14.20;13.20;;;;;14.61;73.50;98948.38;5052309;28;8921;-77
2023/06/12 07:36:20;;;;;;;;;17.20;16.60;;;;;14.81;73.25;98952.78;5037580;28;8834;-78
2023/06/12 07:38:49;;;;;;;;;15.20;14.20;;;;;14.98;72.26;98946.66;5122312;27;8863;-79
2023/06/12 07:41:19;;;;;;;;;10.80;8.80;;;;;14.83;71.96;98948.25;5089895;28;8987;-79
2023/06/12 07:43:47;;;;;;;;;11.20;11.20;;;;;14.62;71.63;98952.75;5105828;28;8851;-79
2023/06/12 07:46:17;;;;;;;;;11.80;11.20;;;;;14.47;73.15;98958.78;5094366;28;8990;-79
2023/06/12 07:48:46;;;;;;;;;12.00;11.00;;;;;14.03;74.80;98959.84;5020847;28;8876;-79
2023/06/12 07:51:16;;;;;;;;;13.20;12.60;;;;;13.96;75.08;98963.69;5088219;28;8852;-79
2023/06/12 07:53:46;;;;;;;;;11.20;10.00;;;;;13.77;75.96;98962.75;5084762;28;8992;-80
2023/06/12 07:56:18;;;;;;;;;14.00;14.00;;;;;13.86;76.59;98963.22;5112818;27;8887;-80
2023/06/12 07:58:49;;;;;;;;;14.00;13.20;;;;;13.77;76.72;98960.09;5084440;28;9616;-78
2023/06/12 08:01:22;;;;;;;;;14.60;13.80;;;;;13.94;76.03;98959.41;5095426;28;8874;-79
2023/06/12 08:03:56;;;;;;;;;17.40;16.60;;;;;13.80;76.39;98959.97;5068536;28;8854;-81
2023/06/12 08:06:26;;;;;;;;;12.20;11.40;;;;;13.77;76.58;98968.91;5047399;28;8852;-80
2023/06/12 08:08:57;;;;;;;;;14.20;13.20;;;;;13.82;76.61;98963.44;5122222;27;8856;-79
2023/06/12 08:11:26;;;;;;;;;18.40;16.20;;;;;14.29;75.66;98974.53;5105425;28;8852;-79
2023/06/12 08:13:55;;;;;;;;;14.20;13.20;;;;;14.56;74.44;98973.34;5086027;28;8847;-81
2023/06/12 08:16:26;;;;;;;;;12.80;12.40;;;;;14.13;75.89;98977.94;5013078;28;8969;-80
2023/06/12 08:18:56;;;;;;;;;13.00;13.00;;;;;13.91;76.27;98978.03;5054479;28;8896;-79
2023/06/12 08:21:31;;;;;;;;;16.40;16.40;;;;;14.14;76.62;98984.94;5095642;28;8874;-79
2023/06/12 08:24:01;;;;;;;;;19.40;18.60;;;;;14.55;74.49;98979.56;5106363;27;8852;-81
2023/06/12 08:26:32;;;;;;;;;14.60;14.40;;;;;14.43;74.49;98980.97;5121752;27;8999;-79
2023/06/12 08:29:01;;;;;;;;;17.00;17.00;;;;;14.44;74.46;98977.41;5057026;28;8851;-79
2023/06/12 08:31:37;;;;;;;;;14.80;14.80;;;;;14.54;73.91;98983.13;5002926;28;8973;-80
2023/06/12 08:34:06;;;;;;;;;17.80;17.80;;;;;14.43;74.68;98976.56;5065355;28;10419;-80
2023/06/12 08:36:36;;;;;;;;;19.40;17.20;;;;;14.36;74.07;98988.34;5066081;28;8990;-80
2023/06/12 08:39:08;;;;;;;;;17.60;17.20;;;;;14.98;72.75;98988.13;5049715;28;9001;-78
2023/06/12 08:41:53;;;;;;;;;16.20;15.40;;;;;15.54;69.68;98984.47;5049421;28;8968;-79
2023/06/12 08:44:23;;;;;;;;;17.20;16.40;;;;;15.12;69.74;98993.63;5065645;28;9592;-80
2023/06/12 08:46:56;;;;;;;;;22.40;21.40;;;;;14.70;72.32;98993.84;5049694;28;8925;-81
2023/06/12 08:49:25;;;;;;;;;16.20;16.00;;;;;14.70;71.80;98997.38;5073285;28;8845;-80
2023/06/12 08:51:55;;;;;;;;;18.40;18.40;;;;;14.70;72.54;98997.38;5066073;28;9571;-80
2023/06/12 08:54:25;;;;;;;;;15.20;14.40;;;;;14.63;73.22;98993.28;4999188;28;8870;-80
2023/06/12 08:56:58;;;;;;;;;25.60;22.00;;;;;14.52;73.28;98995.56;5049304;28;8874;-79
2023/06/12 08:59:26;;;;;;;;;22.80;22.40;;;;;14.95;72.46;98996.22;5064282;28;8861;-79
2023/06/12 09:01:57;;;;;;;;;21.40;21.20;;;;;15.53;70.57;98993.38;5012303;28;8853;-78
2023/06/12 09:04:41;;;;;;;;;20.80;19.80;;;;;16.00;68.04;98995.41;5025067;28;8872;-78
2023/06/12 09:07:12;;;;;;;;;19.00;18.60;;;;;16.18;67.08;98998.03;5009609;28;8862;-78
2023/06/12 09:09:44;;;;;;;;;17.20;17.20;;;;;15.32;69.69;98989.13;5009415;28;9024;-81
2023/06/12 09:12:15;;;;;;;;;19.80;17.20;;;;;15.72;68.73;98998.63;4999837;28;8844;-80
2023/06/12 09:14:48;;;;;;;;;18.60;18.60;;;;;16.22;67.34;98992.47;5017860;28;8851;-79
2023/06/12 09:17:18;;;;;;;;;13.20;12.20;;;;;15.43;69.20;99000.94;5011634;28;8863;-81
2023/06/12 09:19:48;;;;;;;;;16.40;16.40;;;;;15.07;70.87;98990.34;4955792;28;8869;-80
2023/06/12 09:22:18;;;;;;;;;21.80;21.00;;;;;14.90;71.71;99001.72;5003694;28;9038;-80
2023/06/12 09:24:48;;;;;;;;;21.20;20.40;;;;;14.78;72.10;98994.38;5024663;28;8826;-81
2023/06/12 09:27:21;;;;;;;;;23.00;22.00;;;;;14.85;71.81;99004.59;5010827;28;8858;-80
2023/06/12 09:29:50;;;;;;;;;24.80;24.80;;;;;14.97;71.94;98995.22;4966065;28;8834;-80
2023/06/12 09:32:19;;;;;;;;;22.60;22.60;;;;;15.45;70.20;98995.53;5038137;28;8864;-80
2023/06/12 09:34:50;;;;;;;;;24.80;22.80;;;;;14.90;71.85;98990.28;5051722;28;8981;-79
2023/06/12 09:37:19;;;;;;;;;24.20;24.20;;;;;14.99;71.90;98992.50;5051801;28;8839;-81
2023/06/12 09:39:49;;;;;;;;;22.20;22.20;;;;;14.97;71.99;98991.72;5085927;28;9668;-79
2023/06/12 09:42:22;;;;;;;;;21.80;21.00;;;;;15.25;70.67;98992.09;5086477;28;8970;-79
2023/06/12 09:44:50;;;;;;;;;22.20;21.80;;;;;15.50;69.83;98985.56;5077728;28;8976;-80
2023/06/12 09:47:19;;;;;;;;;23.20;22.20;;;;;15.30;69.68;98993.66;5054378;28;8874;-81
2023/06/12 09:49:48;;;;;;;;;23.20;22.60;;;;;15.15;69.99;98992.59;5083270;28;8899;-78
2023/06/12 09:52:18;;;;;;;;;22.60;22.60;;;;;15.52;68.15;98988.16;5082759;28;8850;-79
2023/06/12 09:54:50;;;;;;;;;23.00;22.00;;;;;15.91;67.25;98987.94;5068403;28;8862;-81
2023/06/12 09:57:21;;;;;;;;;23.60;23.20;;;;;15.74;67.68;98993.25;5050143;28;8918;-80
2023/06/12 09:59:52;;;;;;;;;20.80;20.80;;;;;15.63;67.93;98992.00;5100428;28;8850;-82
2023/06/12 10:02:22;;;;;;;;;21.60;21.60;;;;;15.89;67.25;98992.47;5049769;28;8873;-80
2023/06/12 10:04:59;;;;;;;;;22.00;22.00;;;;;15.59;69.05;98992.22;5048672;28;8854;-79
2023/06/12 10:07:32;;;;;;;;;25.00;24.80;;;;;15.25;68.74;98992.09;5067462;28;8931;-79
2023/06/12 10:10:05;;;;;;;;;21.60;20.80;;;;;15.53;68.56;98989.84;5066659;28;8862;-80
2023/06/12 10:12:35;;;;;;;;;22.80;22.60;;;;;15.90;67.83;98986.22;5065846;28;8877;-79
2023/06/12 10:15:05;;;;;;;;;23.00;21.60;;;;;15.68;67.48;98993.56;5066140;28;8862;-81
2023/06/12 10:17:35;;;;;;;;;19.60;19.60;;;;;15.63;68.66;98993.81;5048321;28;8890;-81
2023/06/12 10:20:08;;;;;;;;;24.80;24.80;;;;;15.79;68.28;98994.75;5067547;28;8880;-80
2023/06/12 10:22:37;;;;;;;;;24.40;23.80;;;;;16.24;66.86;98984.44;5064916;28;9023;-79
2023/06/12 10:25:10;;;;;;;;;24.20;23.40;;;;;16.60;65.70;98994.03;5067373;28;8858;-79
2023/06/12 10:27:41;;;;;;;;;22.80;22.20;;;;;16.80;63.84;98992.94;5066135;28;8873;-81
2023/06/12 10:30:12;;;;;;;;;23.40;22.60;;;;;16.85;63.07;98993.53;5067534;28;8962;-79
2023/06/12 10:32:43;;;;;;;;;23.40;22.40;;;;;16.47;63.92;98998.28;5082991;28;8905;-82
2023/06/12 10:35:12;;;;;;;;;26.60;26.60;;;;;16.25;65.28;98999.44;5065855;28;8865;-80
2023/06/12 10:37:43;;;;;;;;;23.80;23.80;;;;;16.59;63.96;98995.84;5065902;28;8846;-80
2023/06/12 10:40:15;;;;;;;;;23.80;21.80;;;;;16.83;63.22;98999.88;5067443;28;8999;-79
2023/06/12 10:43:01;;;;;;;;;24.40;22.60;;;;;16.36;64.83;98996.19;5067419;28;8976;-81
2023/06/12 10:45:31;;;;;;;;;22.40;21.80;;;;;16.98;62.90;98996.34;5067828;28;8861;-80
2023/06/12 10:48:20;;;;;;;;;20.80;20.80;;;;;16.61;63.64;98995.75;5066167;28;8934;-80
2023/06/12 10:50:50;;;;;;;;;26.80;25.60;;;;;17.30;62.00;98997.19;5068984;28;8972;-79
2023/06/12 10:53:25;;;;;;;;;18.40;18.40;;;;;17.82;60.75;98982.66;5062718;28;8855;-80
2023/06/12 10:56:05;;;;;;;;;18.20;17.00;;;;;18.25;58.50;98988.06;5091740;28;8861;-82
2023/06/12 10:58:38;;;;;;;;;19.40;19.40;;;;;17.55;59.77;98998.44;5092661;28;8909;-79
2023/06/12 11:01:11;;;;;;;;;18.80;18.60;;;;;18.15;58.95;98992.22;5095099;28;9037;-80
2023/06/12 11:03:42;;;;;;;;;19.00;19.00;;;;;17.50;60.20;98992.56;5096143;28;8824;-80
2023/06/12 11:06:15;;;;;;;;;24.00;21.60;;;;;17.14;61.46;98997.22;5094127;28;8871;-79
2023/06/12 11:08:47;;;;;;;;;20.00;20.00;;;;;17.16;61.55;98995.31;5057839;28;8920;-80
2023/06/12 11:11:17;;;;;;;;;18.20;18.20;;;;;17.85;59.73;98985.13;5092878;28;9675;-78
2023/06/12 11:13:46;;;;;;;;;21.60;21.00;;;;;18.08;58.43;98988.22;5073694;28;8854;-80
2023/06/12 11:16:16;;;;;;;;;21.40;21.40;;;;;18.22;57.77;98985.59;5079215;28;8864;-80
2023/06/12 11:18:45;;;;;;;;;21.20;21.20;;;;;18.01;58.56;98993.03;5115011;28;8858;-80
2023/06/12 11:21:14;;;;;;;;;23.20;22.00;;;;;17.40;59.58;98989.59;5072525;28;8850;-79
2023/06/12 11:23:43;;;;;;;;;19.20;18.40;;;;;16.78;61.58;98995.69;5071177;28;8838;-78
2023/06/12 11:26:18;;;;;;;;;27.00;25.00;;;;;17.10;61.42;98992.16;5070673;28;9706;-80
2023/06/12 11:28:50;;;;;;;;;22.40;21.60;;;;;17.39;60.89;98983.38;5069322;28;8854;-78
2023/06/12 11:31:19;;;;;;;;;22.00;21.40;;;;;17.43;60.44;98980.56;5042753;28;8846;-81
2023/06/12 11:33:48;;;;;;;;;19.20;19.20;;;;;17.83;59.55;98986.16;5031474;28;8838;-79
2023/06/12 11:36:17;;;;;;;;;24.00;24.00;;;;;17.32;60.43;98987.34;5064789;28;8970;-80
2023/06/12 11:38:46;;;;;;;;;25.60;25.20;;;;;16.94;61.38;98992.16;5047875;28;8865;-79
2023/06/12 11:41:18;;;;;;;;;21.40;19.40;;;;;16.94;61.81;98987.69;5064304;28;8854;-80
2023/06/12 11:43:47;;;;;;;;;21.20;21.20;;;;;17.68;60.58;98979.97;5064675;28;8892;-80
2023/06/12 11:46:17;;;;;;;;;22.00;21.60;;;;;17.90;58.90;98984.88;5047910;28;9008;-80